Time;durP1;ratioP1;P1;durP2;ratioP2;P2;SDS_P1;SDS_P2;PMS_P1;PMS_P2;Temp;Humidity;BMP_temperature;BMP_pressure;BME280_temperature;BME280_humidity;BME280_pressure;Samples;Min_cycle;Max_cycle;Signal;HPM_P1;HPM_P2
2023/11/10 00:01:16;;;;;;;7.88;1.42;;;5.10;99.90;;;;;;5080812;28;20044;-63
2023/11/10 00:03:42;;;;;;;11.77;1.25;;;5.10;99.90;;;;;;5078053;28;20120;-62
2023/11/10 00:06:08;;;;;;;4.00;1.40;;;5.10;99.90;;;;;;5081404;28;20151;-62
2023/11/10 00:08:33;;;;;;;6.28;1.58;;;5.10;99.90;;;;;;5080819;28;20048;-63
2023/11/10 00:10:59;;;;;;;8.32;1.00;;;5.00;99.90;;;;;;5078615;28;20426;-62
2023/11/10 00:13:25;;;;;;;10.93;1.85;;;5.00;99.90;;;;;;5073771;28;20482;-63
2023/11/10 00:15:51;;;;;;;10.02;1.13;;;4.90;99.90;;;;;;5082981;28;20734;-63
2023/11/10 00:18:16;;;;;;;8.68;1.25;;;4.90;99.90;;;;;;5069688;28;20056;-63
2023/11/10 00:20:42;;;;;;;5.65;0.98;;;4.90;99.90;;;;;;5066140;28;20046;-63
2023/11/10 00:23:08;;;;;;;12.38;1.98;;;4.90;99.90;;;;;;5065284;28;20514;-64
2023/11/10 00:25:35;;;;;;;6.55;1.05;;;5.00;99.90;;;;;;5067439;28;20048;-63
2023/11/10 00:28:03;;;;;;;5.88;1.00;;;5.00;99.90;;;;;;5069043;28;20523;-63
2023/11/10 00:30:28;;;;;;;8.00;1.08;;;5.00;99.90;;;;;;5065156;28;20036;-64
2023/11/10 00:32:55;;;;;;;7.00;1.30;;;5.00;99.90;;;;;;5066221;28;20032;-63
2023/11/10 00:35:20;;;;;;;27.90;2.17;;;5.00;99.90;;;;;;5067130;28;20032;-63
2023/11/10 00:37:49;;;;;;;3.58;0.63;;;5.00;99.90;;;;;;5067241;28;20085;-61
2023/11/10 00:40:16;;;;;;;2.70;1.00;;;5.00;99.90;;;;;;5067393;28;20698;-63
2023/11/10 00:42:41;;;;;;;4.32;1.00;;;5.00;99.90;;;;;;5081445;28;20035;-61
2023/11/10 00:45:07;;;;;;;5.78;0.80;;;5.00;99.90;;;;;;5067795;28;20033;-62
2023/11/10 00:47:33;;;;;;;4.15;0.93;;;5.00;99.90;;;;;;5066146;28;20063;-63
2023/11/10 00:50:02;;;;;;;5.85;1.08;;;5.00;99.90;;;;;;5067995;28;20036;-63
2023/11/10 00:52:28;;;;;;;4.45;0.85;;;5.00;99.90;;;;;;5065774;28;20147;-63
2023/11/10 00:54:53;;;;;;;3.83;0.70;;;5.00;99.90;;;;;;5067890;28;20540;-64
2023/11/10 00:57:19;;;;;;;2.97;0.80;;;5.00;99.90;;;;;;5067037;28;20044;-62
2023/11/10 00:59:45;;;;;;;6.38;0.82;;;4.90;99.90;;;;;;5068099;28;20116;-61
2023/11/10 01:02:13;;;;;;;3.88;1.10;;;5.00;99.90;;;;;;5067020;28;20040;-62
2023/11/10 01:04:39;;;;;;;6.68;0.77;;;5.00;99.90;;;;;;5066774;28;20055;-63
2023/11/10 01:07:04;;;;;;;2.22;0.82;;;5.00;99.90;;;;;;5065461;28;20044;-63
2023/11/10 01:09:30;;;;;;;1.17;0.60;;;5.00;99.90;;;;;;5064207;28;20049;-61
2023/11/10 01:11:56;;;;;;;4.45;0.85;;;5.00;99.90;;;;;;5066962;28;20044;-62
2023/11/10 01:14:22;;;;;;;2.20;0.80;;;5.10;99.90;;;;;;5068003;28;20128;-63
2023/11/10 01:16:47;;;;;;;6.78;1.13;;;5.10;99.90;;;;;;5066407;28;20051;-61
2023/11/10 01:19:13;;;;;;;4.63;1.08;;;5.10;99.90;;;;;;5068696;28;20031;-63
2023/11/10 01:21:39;;;;;;;8.13;0.82;;;5.10;99.90;;;;;;5064503;28;20546;-63
2023/11/10 01:24:05;;;;;;;7.97;0.90;;;5.20;99.90;;;;;;5065757;28;20067;-63
2023/11/10 01:26:31;;;;;;;4.53;0.75;;;5.20;99.90;;;;;;5066259;28;20504;-63
2023/11/10 01:28:57;;;;;;;2.45;0.82;;;5.30;99.90;;;;;;5065372;28;20747;-63
2023/11/10 01:31:22;;;;;;;3.47;0.60;;;5.30;99.90;;;;;;5066136;28;20044;-63
2023/11/10 01:33:48;;;;;;;4.78;0.57;;;5.30;99.90;;;;;;5065304;28;20033;-63
2023/11/10 01:36:14;;;;;;;6.15;0.95;;;5.30;99.90;;;;;;5066767;28;20101;-62
2023/11/10 01:38:42;;;;;;;2.90;0.55;;;5.30;99.90;;;;;;5065380;28;20040;-62
2023/11/10 01:41:09;;;;;;;3.25;0.63;;;5.30;99.90;;;;;;5062645;28;20097;-62
2023/11/10 01:43:34;;;;;;;5.30;0.90;;;5.30;99.90;;;;;;5064811;28;20500;-62
2023/11/10 01:46:01;;;;;;;2.90;0.50;;;5.30;99.90;;;;;;5066479;28;20052;-62
2023/11/10 01:48:27;;;;;;;4.93;0.80;;;5.30;99.90;;;;;;5065253;28;20494;-63
2023/11/10 01:50:54;;;;;;;1.20;0.63;;;5.30;99.90;;;;;;5060818;28;20136;-62
2023/11/10 01:53:21;;;;;;;1.73;0.40;;;5.30;99.90;;;;;;5066102;28;20633;-62
2023/11/10 01:55:47;;;;;;;1.45;0.70;;;5.30;99.90;;;;;;5066879;28;20570;-63
2023/11/10 01:58:13;;;;;;;2.75;0.80;;;5.30;99.90;;;;;;5065926;28;20093;-60
2023/11/10 02:00:39;;;;;;;1.63;0.50;;;5.30;99.90;;;;;;5065932;28;20040;-62
2023/11/10 02:03:06;;;;;;;3.17;0.80;;;5.20;99.90;;;;;;5066017;28;20044;-62
2023/11/10 02:05:35;;;;;;;5.13;0.98;;;5.20;99.90;;;;;;5066317;28;20049;-63
2023/11/10 02:08:02;;;;;;;8.15;1.70;;;5.20;99.90;;;;;;5065572;28;20037;-63
2023/11/10 02:10:28;;;;;;;3.72;0.90;;;5.20;99.90;;;;;;5064356;28;20048;-63
2023/11/10 02:12:56;;;;;;;2.47;0.80;;;5.20;99.90;;;;;;5065445;28;20060;-62
2023/11/10 02:15:23;;;;;;;3.55;0.70;;;5.20;99.90;;;;;;5066584;28;20111;-63
2023/11/10 02:17:49;;;;;;;2.95;0.70;;;5.20;99.90;;;;;;5064039;28;20045;-63
2023/11/10 02:20:15;;;;;;;5.38;0.80;;;5.20;99.90;;;;;;5066022;28;20033;-62
2023/11/10 02:22:45;;;;;;;2.80;0.80;;;5.20;99.90;;;;;;5064760;28;20605;-63
2023/11/10 02:25:18;;;;;;;6.20;0.73;;;5.20;99.90;;;;;;5066651;28;20059;-62
2023/11/10 02:27:44;;;;;;;5.38;0.90;;;5.10;99.90;;;;;;5065318;28;20040;-62
2023/11/10 02:30:10;;;;;;;7.47;0.70;;;5.10;99.90;;;;;;5066789;28;20036;-62
2023/11/10 02:32:36;;;;;;;1.30;0.50;;;5.10;99.90;;;;;;5041454;28;20044;-62
2023/11/10 02:35:04;;;;;;;6.40;0.93;;;5.10;99.90;;;;;;5046358;28;20041;-62
2023/11/10 02:37:30;;;;;;;3.42;0.90;;;5.10;99.90;;;;;;5044817;28;20124;-63
2023/11/10 02:39:55;;;;;;;4.10;0.70;;;5.10;99.90;;;;;;5045645;28;20130;-62
2023/11/10 02:42:21;;;;;;;3.33;0.68;;;5.10;99.90;;;;;;5044652;28;20320;-62
2023/11/10 02:44:47;;;;;;;2.03;0.55;;;5.10;99.90;;;;;;5045104;28;20043;-63
2023/11/10 02:47:12;;;;;;;4.25;0.93;;;5.10;99.90;;;;;;5045274;28;20099;-63
2023/11/10 02:49:38;;;;;;;1.38;0.50;;;5.10;99.90;;;;;;5045134;28;20128;-62
2023/11/10 02:52:03;;;;;;;2.63;0.70;;;5.10;99.90;;;;;;5044999;28;20029;-62
2023/11/10 02:54:29;;;;;;;3.47;0.82;;;5.10;99.90;;;;;;5044130;28;20048;-62
2023/11/10 02:56:55;;;;;;;2.10;0.88;;;5.10;99.90;;;;;;5046020;28;20048;-62
2023/11/10 02:59:20;;;;;;;1.52;0.60;;;5.10;99.90;;;;;;5044965;28;20045;-62
2023/11/10 03:01:46;;;;;;;3.35;0.70;;;5.10;99.90;;;;;;5056979;28;20059;-62
2023/11/10 03:04:11;;;;;;;3.30;0.85;;;5.10;99.90;;;;;;5062112;28;20123;-63
2023/11/10 03:06:37;;;;;;;5.45;0.98;;;5.10;99.90;;;;;;5064176;28;20549;-63
2023/11/10 03:09:04;;;;;;;3.42;0.80;;;5.10;99.90;;;;;;5063364;28;20032;-62
2023/11/10 03:11:30;;;;;;;3.72;0.90;;;5.10;99.90;;;;;;5066264;28;20045;-62
2023/11/10 03:13:55;;;;;;;4.07;0.65;;;5.10;99.90;;;;;;5065060;28;20032;-62
2023/11/10 03:16:22;;;;;;;4.68;0.90;;;5.10;99.90;;;;;;5064719;28;20504;-63
2023/11/10 03:18:52;;;;;;;5.28;1.30;;;5.10;99.90;;;;;;5063288;28;20037;-63
2023/11/10 03:21:18;;;;;;;4.45;0.80;;;5.10;99.90;;;;;;5064997;28;20048;-62
2023/11/10 03:23:44;;;;;;;2.20;0.88;;;5.10;99.90;;;;;;5062697;28;20040;-63
2023/11/10 03:26:10;;;;;;;2.45;0.73;;;5.10;99.90;;;;;;5065097;28;20526;-63
2023/11/10 03:28:36;;;;;;;3.28;0.88;;;5.10;99.90;;;;;;5063264;28;20040;-63
2023/11/10 03:31:05;;;;;;;9.27;1.15;;;5.10;99.90;;;;;;5064335;28;20411;-63
2023/11/10 03:33:33;;;;;;;6.25;0.82;;;5.10;99.90;;;;;;5063882;28;20045;-63
2023/11/10 03:36:00;;;;;;;2.72;0.80;;;5.10;99.90;;;;;;5064471;28;20047;-63
2023/11/10 03:38:26;;;;;;;6.05;1.48;;;5.10;99.90;;;;;;5063795;28;20527;-63
2023/11/10 03:40:53;;;;;;;4.20;0.85;;;5.00;99.90;;;;;;5064262;28;20042;-62
2023/11/10 03:43:19;;;;;;;2.63;0.82;;;5.10;99.90;;;;;;5063828;28;20075;-63
2023/11/10 03:45:44;;;;;;;7.35;1.20;;;5.10;99.90;;;;;;5064334;28;20076;-62
2023/11/10 03:48:10;;;;;;;4.00;0.85;;;5.10;99.90;;;;;;5064078;28;20037;-62
2023/11/10 03:50:36;;;;;;;8.40;1.00;;;5.10;99.90;;;;;;5064979;28;20036;-61
2023/11/10 03:53:01;;;;;;;9.07;1.80;;;5.10;99.90;;;;;;5062159;28;20036;-62
2023/11/10 03:55:27;;;;;;;4.10;1.08;;;5.10;99.90;;;;;;5068327;28;20042;-62
2023/11/10 03:57:53;;;;;;;7.22;1.10;;;5.20;99.90;;;;;;5067387;28;20032;-62
2023/11/10 04:00:19;;;;;;;3.85;1.20;;;5.20;99.90;;;;;;5067835;28;20028;-62
2023/11/10 04:02:45;;;;;;;4.15;0.90;;;5.20;99.90;;;;;;5067219;28;20460;-62
2023/11/10 04:05:11;;;;;;;6.57;1.38;;;5.30;99.90;;;;;;5068151;28;20036;-62
2023/11/10 04:07:37;;;;;;;5.45;1.38;;;5.30;99.90;;;;;;5066854;28;20080;-60
2023/11/10 04:10:03;;;;;;;10.30;1.25;;;5.30;99.90;;;;;;5067518;28;20068;-62
2023/11/10 04:12:29;;;;;;;8.90;1.30;;;5.30;99.90;;;;;;5067903;28;20036;-62
2023/11/10 04:14:55;;;;;;;8.10;0.88;;;5.30;99.90;;;;;;5067694;28;20676;-62
2023/11/10 04:17:25;;;;;;;4.28;0.73;;;5.30;99.90;;;;;;5066998;28;20791;-62
2023/11/10 04:19:51;;;;;;;3.22;0.90;;;5.30;99.90;;;;;;5066969;28;20037;-62
2023/11/10 04:22:17;;;;;;;6.10;1.55;;;5.30;99.90;;;;;;5081792;28;20033;-62
2023/11/10 04:24:43;;;;;;;5.95;1.10;;;5.30;99.90;;;;;;5065272;28;20542;-62
2023/11/10 04:27:08;;;;;;;2.20;1.00;;;5.30;99.90;;;;;;5067548;28;20044;-62
2023/11/10 04:29:36;;;;;;;5.95;1.08;;;5.20;99.90;;;;;;5067951;28;20037;-63
2023/11/10 04:32:03;;;;;;;4.28;1.33;;;5.30;99.90;;;;;;5067132;28;20614;-62
2023/11/10 04:34:29;;;;;;;5.18;1.15;;;5.30;99.90;;;;;;5067382;28;20041;-62
2023/11/10 04:36:54;;;;;;;6.38;0.90;;;5.30;99.90;;;;;;5067214;28;20128;-62
2023/11/10 04:39:20;;;;;;;9.00;1.10;;;5.40;99.90;;;;;;5066461;28;20040;-63
2023/11/10 04:41:47;;;;;;;4.03;0.93;;;5.40;99.90;;;;;;5066896;28;20119;-62
2023/11/10 04:44:13;;;;;;;3.20;0.77;;;5.40;99.90;;;;;;5066529;28;20040;-63
2023/11/10 04:46:41;;;;;;;3.47;1.13;;;5.40;99.90;;;;;;5067227;28;20040;-63
2023/11/10 04:49:07;;;;;;;4.63;0.98;;;5.50;99.90;;;;;;5065927;28;20644;-62
2023/11/10 04:51:33;;;;;;;5.07;1.58;;;5.40;99.90;;;;;;5067297;28;20127;-62
2023/11/10 04:53:59;;;;;;;5.30;0.70;;;5.50;99.90;;;;;;5081782;28;20047;-62
2023/11/10 04:56:24;;;;;;;3.08;0.70;;;5.40;99.90;;;;;;5068095;28;20128;-61
2023/11/10 04:58:50;;;;;;;3.50;0.73;;;5.40;99.90;;;;;;5067811;28;20120;-63
2023/11/10 05:01:16;;;;;;;2.05;1.20;;;5.40;99.90;;;;;;5066731;28;20036;-63
2023/11/10 05:03:42;;;;;;;4.32;1.00;;;5.40;99.90;;;;;;5064174;28;20710;-62
2023/11/10 05:06:08;;;;;;;6.03;1.52;;;5.40;99.90;;;;;;5064417;28;20115;-62
2023/11/10 05:08:33;;;;;;;8.38;1.00;;;5.40;99.90;;;;;;5066004;28;20565;-63
2023/11/10 05:10:59;;;;;;;5.13;1.00;;;5.50;99.90;;;;;;5066067;28;20036;-62
2023/11/10 05:13:26;;;;;;;6.32;1.38;;;5.40;99.90;;;;;;5065727;28;20037;-64
2023/11/10 05:15:51;;;;;;;5.22;1.08;;;5.40;99.90;;;;;;5066933;28;20554;-62
2023/11/10 05:18:18;;;;;;;5.65;0.90;;;5.40;99.90;;;;;;5065902;28;20059;-62
2023/11/10 05:20:44;;;;;;;4.72;1.10;;;5.40;99.90;;;;;;5065909;28;20048;-63
2023/11/10 05:23:09;;;;;;;9.05;0.88;;;5.40;99.90;;;;;;5064340;28;20419;-62
2023/11/10 05:25:35;;;;;;;6.90;1.02;;;5.40;99.90;;;;;;5066681;28;20044;-63
2023/11/10 05:28:01;;;;;;;4.45;1.38;;;5.40;99.90;;;;;;5065436;28;20563;-63
2023/11/10 05:30:26;;;;;;;1.85;0.65;;;5.40;99.90;;;;;;5066341;28;20053;-64
2023/11/10 05:32:52;;;;;;;2.92;1.00;;;5.40;99.90;;;;;;5064762;28;20056;-62
2023/11/10 05:35:18;;;;;;;6.00;1.55;;;5.40;99.90;;;;;;5066221;28;20037;-63
2023/11/10 05:37:44;;;;;;;5.65;0.80;;;5.40;99.90;;;;;;5065725;28;20125;-63
2023/11/10 05:40:10;;;;;;;8.57;0.77;;;5.30;99.90;;;;;;5066121;28;20152;-63
2023/11/10 05:42:36;;;;;;;3.15;0.90;;;5.40;99.90;;;;;;5065681;28;20128;-63
2023/11/10 05:45:03;;;;;;;4.82;0.88;;;5.30;99.90;;;;;;5064241;28;20044;-62
2023/11/10 05:47:28;;;;;;;4.95;1.05;;;5.30;99.90;;;;;;5066254;28;20111;-62
2023/11/10 05:49:54;;;;;;;3.70;1.02;;;5.30;99.90;;;;;;5066113;28;20036;-62
2023/11/10 05:52:20;;;;;;;3.42;0.90;;;5.30;99.90;;;;;;5065156;28;20445;-62
2023/11/10 05:54:46;;;;;;;6.95;1.17;;;5.30;99.90;;;;;;5066689;28;20048;-62
2023/11/10 05:57:13;;;;;;;5.13;0.80;;;5.40;99.90;;;;;;5064798;28;20074;-62
2023/11/10 05:59:38;;;;;;;6.97;0.80;;;5.40;99.90;;;;;;5066969;28;20071;-63
2023/11/10 06:02:04;;;;;;;2.25;0.60;;;5.40;99.90;;;;;;5064777;28;20500;-63
2023/11/10 06:04:30;;;;;;;3.08;0.60;;;5.40;99.90;;;;;;5062224;28;20044;-63
2023/11/10 06:06:56;;;;;;;4.03;0.93;;;5.40;99.90;;;;;;5063228;28;20052;-61
2023/11/10 06:09:22;;;;;;;3.90;0.80;;;5.40;99.90;;;;;;5064810;28;20135;-62
2023/11/10 06:11:49;;;;;;;8.40;0.77;;;5.40;99.90;;;;;;5066638;28;20637;-61
2023/11/10 06:14:16;;;;;;;3.97;0.70;;;5.50;99.90;;;;;;5063852;28;20040;-63
2023/11/10 06:16:42;;;;;;;12.35;0.90;;;5.40;99.90;;;;;;5065463;28;20048;-58
2023/11/10 06:19:08;;;;;;;2.97;0.70;;;5.40;99.90;;;;;;5064618;28;20036;-64
2023/11/10 06:21:34;;;;;;;3.90;0.77;;;5.50;99.90;;;;;;5066674;28;20052;-64
2023/11/10 06:24:00;;;;;;;3.42;1.20;;;5.50;99.90;;;;;;5065329;28;20037;-65
2023/11/10 06:26:26;;;;;;;7.20;1.00;;;5.50;99.90;;;;;;5062935;28;20052;-65
2023/11/10 06:28:52;;;;;;;4.85;0.95;;;5.50;99.90;;;;;;5063968;28;20059;-62
2023/11/10 06:31:20;;;;;;;2.33;0.50;;;5.50;99.90;;;;;;5061471;28;20782;-65
2023/11/10 06:33:48;;;;;;;4.32;1.13;;;5.50;99.90;;;;;;5063516;28;20132;-67
2023/11/10 06:36:16;;;;;;;4.63;0.80;;;5.60;99.90;;;;;;5065607;28;20044;-62
2023/11/10 06:38:42;;;;;;;1.95;0.60;;;5.60;99.90;;;;;;5065357;28;20094;-63
2023/11/10 06:41:08;;;;;;;6.88;1.13;;;5.60;99.90;;;;;;5062443;28;20033;-61
2023/11/10 06:43:33;;;;;;;3.67;0.88;;;5.60;99.90;;;;;;5064998;28;20523;-63
2023/11/10 06:45:59;;;;;;;9.10;0.80;;;5.60;99.90;;;;;;5065786;28;20068;-60
2023/11/10 06:48:25;;;;;;;1.85;0.50;;;5.60;99.90;;;;;;5065069;28;20114;-61
2023/11/10 06:50:50;;;;;;;6.15;1.83;;;5.60;99.90;;;;;;5066316;28;20040;-62
2023/11/10 06:53:16;;;;;;;3.30;0.80;;;5.60;99.90;;;;;;5064251;28;20036;-61
2023/11/10 06:55:41;;;;;;;5.72;1.00;;;5.60;99.90;;;;;;5065333;28;20047;-63
2023/11/10 06:58:08;;;;;;;3.88;0.80;;;5.60;99.90;;;;;;5064422;28;20037;-63
2023/11/10 07:00:36;;;;;;;3.67;0.98;;;5.60;99.90;;;;;;5064746;28;20139;-63
2023/11/10 07:03:02;;;;;;;5.82;0.95;;;5.60;99.90;;;;;;5064018;28;20039;-63
2023/11/10 07:05:28;;;;;;;2.97;0.63;;;5.60;99.90;;;;;;5064701;28;20067;-62
2023/11/10 07:07:54;;;;;;;1.30;0.73;;;5.50;99.90;;;;;;5062433;28;20052;-62
2023/11/10 07:10:20;;;;;;;2.58;0.82;;;5.50;99.90;;;;;;5059524;28;20050;-61
2023/11/10 07:12:46;;;;;;;5.38;0.98;;;5.50;99.90;;;;;;5062707;28;20500;-62
2023/11/10 07:15:12;;;;;;;4.80;0.80;;;5.50;99.90;;;;;;5062920;28;20548;-62
2023/11/10 07:17:38;;;;;;;1.83;0.57;;;5.50;99.90;;;;;;5064846;28;20032;-63
2023/11/10 07:20:14;;;;;;;3.58;0.70;;;5.40;99.90;;;;;;5064784;28;20123;-62
2023/11/10 07:22:40;;;;;;;7.55;1.00;;;5.50;99.90;;;;;;5064038;28;20036;-61
2023/11/10 07:25:06;;;;;;;5.40;0.80;;;5.40;99.90;;;;;;5059841;28;20089;-62
2023/11/10 07:27:33;;;;;;;5.47;0.63;;;5.50;99.90;;;;;;5069571;28;20054;-62
2023/11/10 07:29:58;;;;;;;4.88;0.75;;;5.50;99.90;;;;;;5067093;28;20032;-59
2023/11/10 07:32:24;;;;;;;3.55;0.80;;;5.60;99.90;;;;;;5066947;28;22633;-60
2023/11/10 07:34:50;;;;;;;3.72;0.68;;;5.60;99.90;;;;;;5068900;28;20111;-61
2023/11/10 07:37:16;;;;;;;3.47;0.88;;;5.60;99.90;;;;;;5067744;28;20052;-62
2023/11/10 07:39:41;;;;;;;1.88;0.68;;;5.60;99.90;;;;;;5062877;28;20507;-62
2023/11/10 07:42:07;;;;;;;6.63;0.70;;;5.60;99.90;;;;;;5067466;28;20036;-61
2023/11/10 07:44:34;;;;;;;4.97;0.82;;;5.60;99.90;;;;;;5066666;28;20052;-60
2023/11/10 07:47:00;;;;;;;2.35;0.80;;;5.60;99.90;;;;;;5069320;28;20037;-61
2023/11/10 07:49:25;;;;;;;2.88;0.60;;;5.60;99.90;;;;;;5067834;28;20490;-61
2023/11/10 07:51:53;;;;;;;5.60;1.20;;;5.70;99.90;;;;;;5064956;28;20060;-62
2023/11/10 07:54:20;;;;;;;6.10;0.65;;;5.60;99.90;;;;;;5065968;28;20040;-58
2023/11/10 07:56:46;;;;;;;4.95;0.90;;;5.70;99.90;;;;;;5068611;28;20170;-61
2023/11/10 07:59:12;;;;;;;3.95;0.88;;;5.70;99.90;;;;;;5067137;28;20036;-61
2023/11/10 08:01:41;;;;;;;1.70;0.73;;;5.70;99.90;;;;;;5066663;28;20055;-61
2023/11/10 08:04:09;;;;;;;3.30;0.60;;;5.80;99.90;;;;;;5061736;28;20040;-61
2023/11/10 08:06:35;;;;;;;2.53;0.55;;;5.90;99.90;;;;;;5066566;28;20093;-61
2023/11/10 08:09:03;;;;;;;1.50;0.47;;;5.90;99.90;;;;;;5068069;28;20091;-62
2023/11/10 08:11:30;;;;;;;2.45;0.60;;;5.90;99.90;;;;;;5067672;28;20049;-62
2023/11/10 08:13:56;;;;;;;3.08;0.80;;;6.00;99.90;;;;;;5068145;28;20047;-62
2023/11/10 08:16:22;;;;;;;1.65;0.70;;;6.00;99.90;;;;;;5066445;28;20170;-62
2023/11/10 08:18:48;;;;;;;1.00;0.40;;;5.90;99.90;;;;;;5066898;28;20115;-61
2023/11/10 08:21:17;;;;;;;2.28;0.70;;;5.90;99.90;;;;;;5061806;28;20043;-61
2023/11/10 08:23:43;;;;;;;0.82;0.40;;;5.90;99.90;;;;;;5066905;28;20032;-61
2023/11/10 08:26:09;;;;;;;5.80;0.77;;;5.90;99.90;;;;;;5083550;28;20133;-61
2023/11/10 08:28:35;;;;;;;3.17;0.40;;;5.80;99.90;;;;;;5067177;28;20741;-61
2023/11/10 08:31:01;;;;;;;2.38;0.60;;;5.80;99.90;;;;;;5068196;28;20024;-60
2023/11/10 08:33:26;;;;;;;;;;;5.80;99.90;;;;;;5066345;28;20044;-61
2023/11/10 08:35:52;;;;;;;1.08;0.43;;;5.80;99.90;;;;;;5067142;28;20320;-61
2023/11/10 08:38:18;;;;;;;3.72;0.57;;;5.70;99.90;;;;;;5065507;28;20123;-61
2023/11/10 08:40:44;;;;;;;2.15;0.50;;;5.80;99.90;;;;;;5053497;28;20140;-62
2023/11/10 08:43:11;;;;;;;1.50;0.50;;;5.80;99.90;;;;;;5067087;28;20497;-61
2023/11/10 08:45:36;;;;;;;8.55;1.85;;;5.80;99.90;;;;;;5067631;28;20033;-62
2023/11/10 08:48:03;;;;;;;3.10;0.40;;;6.00;99.90;;;;;;5067030;28;20112;-62
2023/11/10 08:50:29;;;;;;;3.60;0.73;;;6.00;99.90;;;;;;5061495;28;20045;-62
2023/11/10 08:52:54;;;;;;;2.05;0.93;;;6.00;99.90;;;;;;5063799;28;20048;-62
2023/11/10 08:55:23;;;;;;;2.22;0.40;;;6.00;99.90;;;;;;5066964;28;20055;-61
2023/11/10 08:57:50;;;;;;;2.35;0.40;;;6.00;99.90;;;;;;5066415;28;20033;-61
2023/11/10 09:00:17;;;;;;;2.13;0.75;;;6.00;99.90;;;;;;5066720;28;20040;-61
2023/11/10 09:02:44;;;;;;;1.38;0.52;;;6.00;99.90;;;;;;5063902;28;20044;-61
2023/11/10 09:05:10;;;;;;;2.10;0.47;;;6.00;99.90;;;;;;5066977;28;20046;-61
2023/11/10 09:07:41;;;;;;;4.75;0.98;;;6.10;99.90;;;;;;5063260;28;20107;-62
2023/11/10 09:10:10;;;;;;;1.55;0.52;;;6.10;99.90;;;;;;5066215;28;20056;-62
2023/11/10 09:12:39;;;;;;;4.25;0.50;;;6.00;99.90;;;;;;5065903;28;20036;-62
2023/11/10 09:15:06;;;;;;;2.30;0.52;;;6.00;99.90;;;;;;5066633;28;20094;-62
2023/11/10 09:17:31;;;;;;;2.33;0.50;;;6.00;99.90;;;;;;5065970;28;20684;-62
2023/11/10 09:19:57;;;;;;;1.63;0.55;;;6.00;99.90;;;;;;5066916;28;20114;-61
2023/11/10 09:22:23;;;;;;;1.75;0.70;;;6.00;99.90;;;;;;5062638;28;20135;-60
2023/11/10 09:24:49;;;;;;;4.10;0.70;;;6.00;99.90;;;;;;5066832;28;20115;-59
2023/11/10 09:27:15;;;;;;;2.35;0.68;;;6.00;99.90;;;;;;5065022;28;20129;-60
2023/11/10 09:29:41;;;;;;;3.13;0.57;;;6.00;99.90;;;;;;5065510;28;20677;-58
2023/11/10 09:32:10;;;;;;;3.85;0.80;;;6.00;99.90;;;;;;5078409;28;20041;-61
2023/11/10 09:34:39;;;;;;;4.15;0.77;;;6.00;99.90;;;;;;5046384;28;20041;-59
2023/11/10 09:37:06;;;;;;;2.85;0.88;;;6.00;99.90;;;;;;5046306;28;20048;-61
2023/11/10 09:39:32;;;;;;;5.25;1.05;;;6.00;99.90;;;;;;5045842;28;20096;-61
2023/11/10 09:42:07;;;;;;;5.00;0.90;;;6.00;99.90;;;;;;5045855;28;20835;-61
2023/11/10 09:44:41;;;;;;;3.67;0.77;;;6.00;99.90;;;;;;5046326;28;20320;-61
2023/11/10 09:47:08;;;;;;;7.10;0.93;;;5.90;99.90;;;;;;5045036;28;20045;-61
2023/11/10 09:49:35;;;;;;;5.18;1.00;;;6.00;99.90;;;;;;5045957;28;20147;-61
2023/11/10 09:52:05;;;;;;;5.07;1.10;;;6.00;99.90;;;;;;5044285;28;20044;-63
2023/11/10 09:54:35;;;;;;;3.28;0.98;;;6.00;99.90;;;;;;5046167;28;20124;-63
2023/11/10 09:57:02;;;;;;;3.13;0.65;;;6.00;99.90;;;;;;5042963;28;20056;-61
2023/11/10 09:59:31;;;;;;;7.13;0.95;;;6.10;99.90;;;;;;5045597;28;20076;-61
2023/11/10 10:02:00;;;;;;;5.13;1.83;;;6.10;99.90;;;;;;5054574;28;20538;-62
2023/11/10 10:04:27;;;;;;;5.10;1.00;;;6.10;99.90;;;;;;5065095;28;20127;-61
2023/11/10 10:06:56;;;;;;;3.78;1.45;;;6.20;99.90;;;;;;5065709;28;20044;-61
2023/11/10 10:09:22;;;;;;;6.28;0.90;;;6.30;99.90;;;;;;5065480;28;20492;-62
2023/11/10 10:11:48;;;;;;;2.70;0.65;;;6.30;99.90;;;;;;5065006;28;20043;-61
2023/11/10 10:14:14;;;;;;;6.22;1.42;;;6.30;99.90;;;;;;5066477;28;20048;-62
2023/11/10 10:16:51;;;;;;;3.90;1.40;;;6.40;99.90;;;;;;5063848;28;20661;-61
2023/11/10 10:19:23;;;;;;;6.40;0.80;;;6.40;99.90;;;;;;5058337;28;20051;-59
2023/11/10 10:21:49;;;;;;;4.38;0.80;;;6.40;99.90;;;;;;5061380;28;20044;-62
2023/11/10 10:24:15;;;;;;;5.30;0.60;;;6.50;99.90;;;;;;5061774;28;20051;-66
2023/11/10 10:26:40;;;;;;;;;;;6.50;99.90;;;;;;5079554;28;20044;-64
2023/11/10 10:29:07;;;;;;;2.50;0.52;;;6.40;99.90;;;;;;5058701;28;19923;-60
2023/11/10 10:31:33;;;;;;;4.68;0.77;;;6.40;99.90;;;;;;5061760;28;20052;-62
2023/11/10 10:34:04;;;;;;;7.10;0.98;;;6.50;99.90;;;;;;5062216;28;20075;-63
2023/11/10 10:36:31;;;;;;;2.72;0.70;;;6.50;99.90;;;;;;5065003;28;20075;-61
2023/11/10 10:38:58;;;;;;;3.97;0.95;;;6.60;99.90;;;;;;5063682;28;20123;-62
2023/11/10 10:41:25;;;;;;;3.75;0.90;;;6.70;99.90;;;;;;5064516;28;20462;-63
2023/11/10 10:43:52;;;;;;;3.55;0.80;;;6.70;99.90;;;;;;5062451;28;20048;-61
2023/11/10 10:46:21;;;;;;;3.05;0.70;;;6.80;99.90;;;;;;5064417;28;20127;-63
2023/11/10 10:48:52;;;;;;;5.70;0.80;;;6.80;99.90;;;;;;5063164;28;20446;-60
2023/11/10 10:51:18;;;;;;;2.97;0.75;;;6.90;99.90;;;;;;5064551;28;20040;-62
2023/11/10 10:53:46;;;;;;;5.20;1.02;;;6.90;99.90;;;;;;5063392;28;20041;-61
2023/11/10 10:56:14;;;;;;;1.48;0.43;;;6.90;99.90;;;;;;5060671;28;20074;-60
2023/11/10 10:58:40;;;;;;;3.22;0.85;;;6.80;99.90;;;;;;5062949;28;20048;-62
2023/11/10 11:01:09;;;;;;;1.40;0.60;;;6.90;99.90;;;;;;5063499;28;20043;-63
2023/11/10 11:03:54;;;;;;;5.35;1.00;;;6.80;99.90;;;;;;5063178;28;20123;-62
2023/11/10 11:07:00;;;;;;;4.97;0.80;;;6.80;99.90;;;;;;5061783;28;20043;-61
2023/11/10 11:09:54;;;;;;;3.70;0.70;;;6.90;99.90;;;;;;5032925;28;20512;-62
2023/11/10 11:12:35;;;;;;;6.70;0.75;;;7.10;99.90;;;;;;5059820;28;20041;-61
2023/11/10 11:15:11;;;;;;;2.95;0.85;;;7.10;99.90;;;;;;5064225;28;20047;-63
2023/11/10 11:17:40;;;;;;;2.25;0.70;;;7.20;99.90;;;;;;5065120;28;20048;-63
2023/11/10 11:20:09;;;;;;;4.15;0.60;;;7.50;99.90;;;;;;5064859;28;20059;-62
2023/11/10 11:22:37;;;;;;;2.38;0.73;;;7.50;99.90;;;;;;5062317;28;20044;-63
2023/11/10 11:25:09;;;;;;;1.05;0.50;;;7.70;99.90;;;;;;5064369;28;20191;-62
2023/11/10 11:27:37;;;;;;;3.85;1.10;;;7.70;99.90;;;;;;5063874;28;20527;-59
2023/11/10 11:30:08;;;;;;;4.05;1.00;;;7.60;99.90;;;;;;5064030;28;20777;-61
2023/11/10 11:32:40;;;;;;;2.28;0.57;;;7.60;99.90;;;;;;5063390;28;20044;-61
2023/11/10 11:35:16;;;;;;;1.42;0.65;;;7.60;99.90;;;;;;5064246;28;20040;-59
2023/11/10 11:37:45;;;;;;;;;;;7.50;99.90;;;;;;5064241;28;20043;-61
2023/11/10 11:40:11;;;;;;;2.22;0.50;;;7.50;99.90;;;;;;5064617;28;19947;-58
2023/11/10 11:42:39;;;;;;;3.90;0.60;;;7.40;99.90;;;;;;5063201;28;20051;-59
2023/11/10 11:45:12;;;;;;;4.32;0.73;;;7.30;99.90;;;;;;5064546;28;20072;-62
2023/11/10 11:47:38;;;;;;;4.47;1.00;;;7.30;99.90;;;;;;5062765;28;20052;-61
2023/11/10 11:50:05;;;;;;;4.43;0.77;;;7.40;99.90;;;;;;5062352;28;20044;-61
2023/11/10 11:52:31;;;;;;;4.30;0.60;;;7.40;99.90;;;;;;5078227;28;20128;-61
2023/11/10 11:54:57;;;;;;;3.50;1.08;;;7.40;99.90;;;;;;5063980;28;20037;-61
2023/11/10 11:57:24;;;;;;;2.38;0.57;;;7.40;99.90;;;;;;5063589;28;20048;-62
2023/11/10 11:59:50;;;;;;;1.92;0.80;;;7.40;99.90;;;;;;5064597;28;20044;-62
2023/11/10 12:02:19;;;;;;;3.58;1.42;;;7.30;99.90;;;;;;5074333;28;20037;-60
2023/11/10 12:04:48;;;;;;;2.13;0.70;;;7.30;99.90;;;;;;5043954;28;20052;-61
2023/11/10 12:07:18;;;;;;;3.85;0.73;;;7.30;99.90;;;;;;5042576;28;20077;-61
2023/11/10 12:09:46;;;;;;;3.92;0.93;;;7.40;99.90;;;;;;5045560;28;20124;-61
2023/11/10 12:12:13;;;;;;;2.28;0.77;;;7.50;99.90;;;;;;5058863;28;20044;-61
2023/11/10 12:14:39;;;;;;;3.35;0.70;;;7.70;99.90;;;;;;5046544;28;20045;-61
2023/11/10 12:17:06;;;;;;;;;;;7.80;99.90;;;;;;5047275;28;20047;-62
2023/11/10 12:19:31;;;;;;;3.03;1.47;;;7.70;99.90;;;;;;5046645;28;19921;-62
2023/11/10 12:21:59;;;;;;;;;;;7.70;99.90;;;;;;5048091;28;20643;-63
2023/11/10 12:24:25;;;;;;;5.63;0.88;;;7.70;99.90;;;;;;5045996;28;19931;-61
2023/11/10 12:26:51;;;;;;;1.33;0.50;;;7.60;99.90;;;;;;5048110;28;20049;-63
2023/11/10 12:29:26;;;;;;;2.97;0.80;;;7.60;99.90;;;;;;5047053;28;20037;-62
2023/11/10 12:31:53;;;;;;;5.72;1.00;;;7.70;99.90;;;;;;5058760;28;20037;-62
2023/11/10 12:34:18;;;;;;;3.47;0.75;;;7.70;99.90;;;;;;5065180;28;20047;-60
2023/11/10 12:36:46;;;;;;;3.13;0.80;;;7.70;99.90;;;;;;5067779;28;20044;-62
2023/11/10 12:39:17;;;;;;;4.25;1.02;;;7.70;99.90;;;;;;5065695;28;20045;-61
2023/11/10 12:41:46;;;;;;;3.85;0.80;;;7.60;99.90;;;;;;5066964;28;20063;-63
2023/11/10 12:44:15;;;;;;;7.07;1.48;;;7.60;99.90;;;;;;5064981;28;20060;-62
2023/11/10 12:47:00;;;;;;;4.75;1.08;;;7.50;99.90;;;;;;5067059;28;20514;-61
2023/11/10 12:49:31;;;;;;;3.65;0.73;;;7.50;99.90;;;;;;5065359;28;20095;-63
2023/11/10 12:52:00;;;;;;;2.33;0.77;;;7.50;99.90;;;;;;5066973;28;20047;-60
2023/11/10 12:54:28;;;;;;;8.60;1.30;;;7.50;99.90;;;;;;5065348;28;20049;-61
2023/11/10 12:56:56;;;;;;;5.32;1.15;;;7.50;99.90;;;;;;5067025;28;20043;-63